Time;durP1;ratioP1;P1;durP2;ratioP2;P2;SDS_P1;SDS_P2;PMS_P1;PMS_P2;Temp;Humidity;BMP_temperature;BMP_pressure;BME280_temperature;BME280_humidity;BME280_pressure;Samples;Min_cycle;Max_cycle;Signal;HPM_P1;HPM_P2
2021/12/18 00:01:06;;;;;;;67.53;7.45;;;7.50;99.90;;;;;;5039017;28;20137;-92
2021/12/18 00:03:33;;;;;;;47.67;6.72;;;7.40;99.90;;;;;;5022310;28;20052;-92
2021/12/18 00:05:59;;;;;;;43.55;5.72;;;7.60;99.90;;;;;;5038731;28;20041;-92
2021/12/18 00:08:25;;;;;;;37.17;5.57;;;7.40;99.90;;;;;;5022113;28;20398;-92
2021/12/18 00:10:53;;;;;;;25.95;5.45;;;7.40;99.90;;;;;;5022245;28;20052;-94
2021/12/18 00:13:19;;;;;;;26.00;4.35;;;7.40;99.90;;;;;;5039348;28;20045;-92
2021/12/18 00:15:45;;;;;;;16.20;3.83;;;7.30;99.90;;;;;;5038933;28;20045;-93
2021/12/18 00:18:10;;;;;;;16.00;3.90;;;7.30;99.90;;;;;;5022273;28;20051;-92
2021/12/18 00:20:37;;;;;;;16.73;4.10;;;7.30;99.90;;;;;;5021761;28;20504;-92
2021/12/18 00:23:04;;;;;;;35.70;4.45;;;7.30;99.90;;;;;;5021876;28;20376;-93
2021/12/18 00:25:30;;;;;;;26.02;4.63;;;7.30;99.90;;;;;;5021703;28;20048;-92
2021/12/18 00:27:56;;;;;;;26.13;4.40;;;7.30;99.90;;;;;;5021860;28;20460;-92
2021/12/18 00:30:22;;;;;;;19.23;4.03;;;7.30;99.90;;;;;;5037648;28;20103;-93
2021/12/18 00:32:48;;;;;;;19.33;4.22;;;7.30;99.90;;;;;;5038886;28;20435;-93
2021/12/18 00:35:13;;;;;;;32.08;4.35;;;7.30;99.90;;;;;;5021286;28;20087;-93
2021/12/18 00:37:39;;;;;;;23.08;4.32;;;7.30;99.90;;;;;;5021994;28;20437;-93
2021/12/18 00:40:10;;;;;;;27.55;4.35;;;7.20;99.90;;;;;;5038121;28;20076;-93
2021/12/18 00:45:06;;;;;;;29.27;4.57;;;7.30;99.90;;;;;;5038509;28;20053;-93
2021/12/18 00:47:31;;;;;;;21.63;4.55;;;7.30;99.90;;;;;;5021265;28;20041;-93
2021/12/18 00:49:57;;;;;;;22.13;3.90;;;7.30;99.90;;;;;;5037869;28;20040;-92
2021/12/18 00:52:23;;;;;;;16.70;3.78;;;7.50;99.90;;;;;;5038428;28;20049;-92
2021/12/18 00:54:49;;;;;;;24.10;3.28;;;7.30;99.90;;;;;;5038024;28;20087;-92
2021/12/18 00:57:15;;;;;;;16.10;3.20;;;7.20;99.90;;;;;;5021357;28;20114;-92
2021/12/18 00:59:40;;;;;;;11.73;2.72;;;7.20;99.90;;;;;;5021746;28;20049;-90
2021/12/18 01:02:06;;;;;;;10.63;2.35;;;7.10;99.90;;;;;;5037881;28;20482;-94
2021/12/18 01:04:32;;;;;;;12.48;2.60;;;7.20;99.90;;;;;;5021385;28;20048;-93
2021/12/18 01:06:58;;;;;;;15.48;2.80;;;7.00;99.90;;;;;;5021330;28;20048;-93
2021/12/18 01:09:42;;;;;;;19.77;3.15;;;7.00;99.90;;;;;;5037612;28;20068;-92
2021/12/18 01:12:08;;;;;;;14.95;3.05;;;6.90;99.90;;;;;;5020682;28;20060;-92
2021/12/18 01:14:51;;;;;;;21.10;3.13;;;6.90;99.90;;;;;;5020993;28;20059;-92
2021/12/18 01:25:11;;;;;;;38.08;3.78;;;6.90;99.90;;;;;;5037306;28;20045;-91
2021/12/18 01:27:37;;;;;;;16.23;3.20;;;6.90;99.90;;;;;;5037375;28;20087;-91
2021/12/18 01:30:08;;;;;;;15.77;3.00;;;6.90;99.90;;;;;;5020357;28;20125;-91
2021/12/18 01:32:34;;;;;;;12.32;3.08;;;6.90;99.90;;;;;;5037557;28;20131;-92
2021/12/18 01:35:01;;;;;;;14.70;2.70;;;6.90;99.90;;;;;;5037126;28;20478;-92
2021/12/18 01:37:27;;;;;;;11.32;2.45;;;6.90;99.90;;;;;;5037403;28;20136;-92
2021/12/18 01:39:54;;;;;;;15.73;2.28;;;6.90;99.90;;;;;;5019723;28;20498;-93
2021/12/18 01:53:07;;;;;;;15.73;2.92;;;6.80;99.90;;;;;;5036844;28;20107;-92
2021/12/18 01:55:36;;;;;;;16.77;2.70;;;6.80;99.90;;;;;;5019524;28;20053;-92
2021/12/18 01:58:02;;;;;;;17.10;2.90;;;6.70;99.90;;;;;;5036611;28;20052;-92
2021/12/18 02:00:40;;;;;;;16.67;2.50;;;6.70;99.90;;;;;;5036388;28;20474;-92
2021/12/18 02:03:06;;;;;;;12.68;2.20;;;6.80;99.90;;;;;;5036758;28;20040;-92
2021/12/18 02:05:32;;;;;;;13.00;2.67;;;6.70;99.90;;;;;;5036720;28;20087;-93
2021/12/18 02:07:58;;;;;;;9.88;2.22;;;6.70;99.90;;;;;;5036377;28;20044;-91
2021/12/18 02:10:28;;;;;;;12.68;2.20;;;6.60;99.90;;;;;;5036423;28;20441;-92
2021/12/18 02:13:19;;;;;;;12.63;2.38;;;6.60;99.90;;;;;;5019626;28;20056;-91
2021/12/18 02:21:14;;;;;;;10.00;1.83;;;6.60;99.90;;;;;;5036333;28;20057;-91
2021/12/18 02:23:41;;;;;;;11.60;2.22;;;6.60;99.90;;;;;;5019576;28;20489;-92
2021/12/18 02:26:07;;;;;;;14.43;2.03;;;6.60;99.90;;;;;;5036235;28;20045;-91
2021/12/18 02:28:33;;;;;;;7.47;1.73;;;6.60;99.90;;;;;;5035848;28;20061;-91
2021/12/18 02:30:59;;;;;;;34.83;2.88;;;6.40;99.90;;;;;;5036002;28;20052;-92
2021/12/18 02:33:26;;;;;;;19.20;2.45;;;6.60;99.90;;;;;;5019548;28;20047;-91
2021/12/18 02:35:55;;;;;;;15.77;2.20;;;6.70;99.90;;;;;;5019642;28;20045;-92
2021/12/18 02:38:24;;;;;;;9.25;2.05;;;6.50;99.90;;;;;;5019610;28;20398;-90
2021/12/18 02:41:05;;;;;;;11.98;2.00;;;6.50;99.90;;;;;;5019684;28;20422;-92
2021/12/18 02:43:35;;;;;;;11.40;1.80;;;6.50;99.90;;;;;;5019593;28;20045;-91
2021/12/18 02:46:06;;;;;;;11.43;1.70;;;6.50;99.90;;;;;;5035921;28;20048;-91
2021/12/18 02:48:34;;;;;;;9.57;1.85;;;6.50;99.90;;;;;;5036115;28;20072;-91
2021/12/18 02:50:59;;;;;;;9.10;1.70;;;6.40;99.90;;;;;;5036044;28;20043;-91
2021/12/18 02:53:26;;;;;;;11.80;1.60;;;6.60;99.90;;;;;;5018824;28;20119;-92
2021/12/18 02:56:11;;;;;;;6.25;1.65;;;6.40;99.90;;;;;;5035810;28;20094;-91
2021/12/18 02:58:43;;;;;;;8.18;1.75;;;6.40;99.90;;;;;;5035958;28;20094;-91
2021/12/18 03:01:13;;;;;;;10.35;2.00;;;6.40;99.90;;;;;;5035553;28;20053;-91
2021/12/18 03:03:41;;;;;;;15.30;1.98;;;6.40;99.90;;;;;;5035850;28;20052;-91
2021/12/18 03:25:29;;;;;;;14.50;2.60;;;6.30;99.90;;;;;;4992001;28;20042;-92
2021/12/18 03:27:59;;;;;;;18.85;2.70;;;6.40;99.90;;;;;;4991470;28;20061;-92
2021/12/18 03:30:25;;;;;;;16.55;2.88;;;6.30;99.90;;;;;;4975801;28;20563;-93
2021/12/18 03:32:51;;;;;;;28.90;2.83;;;6.40;99.90;;;;;;4991879;28;20105;-93
2021/12/18 03:35:17;;;;;;;15.70;3.00;;;6.40;99.90;;;;;;4975791;28;20050;-91
2021/12/18 03:37:44;;;;;;;14.95;2.70;;;6.30;99.90;;;;;;4975413;28;20068;-91
2021/12/18 03:40:16;;;;;;;15.85;3.00;;;6.40;99.90;;;;;;4975676;28;20118;-92
2021/12/18 03:42:42;;;;;;;15.27;2.83;;;6.40;99.90;;;;;;4994522;28;20132;-91
2021/12/18 03:45:09;;;;;;;20.50;2.70;;;6.40;99.90;;;;;;5035238;28;20097;-91
2021/12/18 03:47:36;;;;;;;27.15;3.03;;;6.40;99.90;;;;;;5018872;28;20095;-91
2021/12/18 03:50:02;;;;;;;21.92;2.97;;;6.40;99.90;;;;;;5018628;28;20049;-90
2021/12/18 03:52:27;;;;;;;14.55;2.47;;;6.70;99.90;;;;;;5018454;28;20514;-92
2021/12/18 03:54:53;;;;;;;9.18;1.80;;;6.40;99.90;;;;;;5019210;28;20128;-92
2021/12/18 03:57:19;;;;;;;12.20;2.13;;;6.50;99.90;;;;;;5035429;28;20048;-92
2021/12/18 03:59:45;;;;;;;15.88;2.13;;;6.30;99.90;;;;;;5034988;28;20052;-91
2021/12/18 04:02:10;;;;;;;10.95;1.73;;;6.40;99.90;;;;;;5035338;28;20049;-91
2021/12/18 04:04:36;;;;;;;10.60;1.90;;;6.40;99.90;;;;;;5036715;28;20064;-91
2021/12/18 04:07:02;;;;;;;8.07;1.50;;;6.30;99.90;;;;;;5038787;28;20493;-92
2021/12/18 04:09:31;;;;;;;18.45;2.20;;;6.20;99.90;;;;;;5022304;28;20037;-91
2021/12/18 04:11:57;;;;;;;23.52;1.85;;;6.20;99.90;;;;;;5022121;28;20486;-91
2021/12/18 04:14:23;;;;;;;18.85;2.13;;;6.10;99.90;;;;;;5038638;28;20041;-92
2021/12/18 04:16:49;;;;;;;17.00;1.83;;;6.20;99.90;;;;;;5038714;28;20045;-91
2021/12/18 04:19:15;;;;;;;28.13;2.03;;;6.10;99.90;;;;;;5021884;28;20045;-91
2021/12/18 04:21:41;;;;;;;11.88;1.67;;;6.10;99.90;;;;;;5038500;28;20049;-92
2021/12/18 04:24:07;;;;;;;10.13;2.30;;;6.10;99.90;;;;;;5038334;28;20525;-91
2021/12/18 04:26:34;;;;;;;8.85;2.00;;;6.30;99.90;;;;;;5021758;28;20052;-91
2021/12/18 04:29:03;;;;;;;12.35;2.22;;;6.00;99.90;;;;;;5021348;28;20084;-91
2021/12/18 04:31:29;;;;;;;15.35;2.33;;;6.20;99.90;;;;;;5037955;28;20140;-91
2021/12/18 04:33:55;;;;;;;15.98;2.35;;;6.00;99.90;;;;;;5021778;28;20134;-91
2021/12/18 04:36:21;;;;;;;13.07;2.28;;;6.00;99.90;;;;;;5038394;28;20053;-91
2021/12/18 04:38:47;;;;;;;14.40;2.13;;;5.90;99.90;;;;;;5038116;28;20493;-91
2021/12/18 04:41:20;;;;;;;9.85;2.17;;;5.90;99.90;;;;;;5021848;28;20122;-90
2021/12/18 04:43:46;;;;;;;14.88;2.47;;;6.00;99.90;;;;;;5021512;28;20041;-91
2021/12/18 04:46:12;;;;;;;13.95;2.45;;;5.90;99.90;;;;;;5038358;28;20078;-90
2021/12/18 04:48:38;;;;;;;14.93;2.40;;;5.90;99.90;;;;;;5021545;28;20106;-91
2021/12/18 04:51:03;;;;;;;9.85;2.33;;;5.90;99.90;;;;;;5021705;28;20049;-91
2021/12/18 04:53:29;;;;;;;12.57;2.40;;;5.90;99.90;;;;;;5021055;28;20456;-92
2021/12/18 04:55:55;;;;;;;10.70;2.03;;;6.00;99.90;;;;;;5021705;28;20478;-92
2021/12/18 04:58:20;;;;;;;9.40;2.90;;;6.00;99.90;;;;;;5037718;28;20049;-91
2021/12/18 05:00:47;;;;;;;10.27;2.60;;;5.90;99.90;;;;;;5037918;28;20498;-94
2021/12/18 05:03:15;;;;;;;10.57;2.30;;;6.00;99.90;;;;;;5038217;28;20510;-91
2021/12/18 05:05:41;;;;;;;12.30;2.75;;;6.00;99.90;;;;;;5037721;28;20049;-92
2021/12/18 05:08:07;;;;;;;13.10;2.50;;;6.00;99.90;;;;;;5037688;28;20527;-92
2021/12/18 05:10:33;;;;;;;15.15;2.28;;;6.00;99.90;;;;;;5021092;28;20084;-92
2021/12/18 05:12:59;;;;;;;17.48;2.95;;;6.00;99.90;;;;;;5021625;28;20486;-92
2021/12/18 05:15:25;;;;;;;157.13;11.45;;;6.00;99.90;;;;;;5037007;28;20048;-93
2021/12/18 05:17:51;;;;;;;50.22;4.40;;;6.00;99.90;;;;;;5021196;28;20053;-92
2021/12/18 05:20:17;;;;;;;11.40;2.58;;;6.00;99.90;;;;;;5037859;28;20486;-91
2021/12/18 05:22:43;;;;;;;10.95;2.35;;;6.00;99.90;;;;;;5020910;28;20075;-92
2021/12/18 05:25:09;;;;;;;16.80;2.40;;;6.00;99.90;;;;;;5020505;28;20049;-91
2021/12/18 05:27:36;;;;;;;11.10;2.10;;;6.10;99.90;;;;;;5037218;28;20052;-91
2021/12/18 05:30:07;;;;;;;9.93;2.22;;;6.10;99.90;;;;;;5036992;28;20044;-93
2021/12/18 05:32:33;;;;;;;8.90;1.83;;;6.10;99.90;;;;;;5037061;28;20064;-91
2021/12/18 05:35:00;;;;;;;15.27;2.28;;;6.00;99.90;;;;;;5020844;28;20041;-91
2021/12/18 05:37:45;;;;;;;12.48;2.20;;;6.00;99.90;;;;;;5037133;28;20515;-92
2021/12/18 05:40:14;;;;;;;12.00;2.15;;;6.00;99.90;;;;;;5020678;28;20052;-93
2021/12/18 05:42:40;;;;;;;16.85;2.20;;;6.00;99.90;;;;;;5019708;28;20414;-91
2021/12/18 05:45:07;;;;;;;11.02;2.10;;;6.00;99.90;;;;;;5037146;28;20040;-92
2021/12/18 05:47:33;;;;;;;14.80;2.42;;;5.90;99.90;;;;;;5020291;28;20100;-91
2021/12/18 05:49:59;;;;;;;13.38;2.42;;;5.90;99.90;;;;;;5020371;28;20506;-92
2021/12/18 05:52:25;;;;;;;12.90;2.17;;;5.90;99.90;;;;;;5036841;28;20040;-90
2021/12/18 05:54:51;;;;;;;12.57;2.40;;;6.00;99.90;;;;;;5036741;28;20073;-91
2021/12/18 05:57:17;;;;;;;15.65;2.60;;;5.90;99.90;;;;;;5036649;28;20515;-91
2021/12/18 05:59:46;;;;;;;23.70;2.67;;;5.90;99.90;;;;;;5036957;28;20044;-92
2021/12/18 06:02:11;;;;;;;24.13;2.78;;;5.90;99.90;;;;;;5020206;28;20128;-91
2021/12/18 06:04:37;;;;;;;28.35;2.28;;;5.90;99.90;;;;;;5036531;28;20140;-90
2021/12/18 06:07:05;;;;;;;21.40;2.47;;;6.00;99.90;;;;;;5020211;28;20048;-91
2021/12/18 06:09:35;;;;;;;14.82;2.53;;;5.90;99.90;;;;;;5036388;28;20049;-91
2021/12/18 06:12:02;;;;;;;14.03;2.40;;;6.00;99.90;;;;;;5036194;28;20044;-92
2021/12/18 06:14:28;;;;;;;16.45;2.50;;;5.90;99.90;;;;;;5020045;28;20385;-91
2021/12/18 06:16:54;;;;;;;16.35;2.58;;;6.00;99.90;;;;;;5019454;28;20048;-91
2021/12/18 06:19:20;;;;;;;89.47;5.03;;;5.90;99.90;;;;;;5036576;28;20444;-91
2021/12/18 06:21:46;;;;;;;216.50;11.00;;;5.90;99.90;;;;;;5036236;28;20084;-91
2021/12/18 06:24:12;;;;;;;32.38;2.97;;;5.90;99.90;;;;;;5036305;28;20146;-91
2021/12/18 06:26:38;;;;;;;30.60;2.95;;;5.90;99.90;;;;;;5019760;28;20576;-91
2021/12/18 06:29:04;;;;;;;21.60;2.60;;;5.90;99.90;;;;;;5018539;28;20147;-92
2021/12/18 06:31:34;;;;;;;20.58;2.28;;;5.90;99.90;;;;;;5036379;28;20084;-91
2021/12/18 06:33:59;;;;;;;313.48;23.55;;;5.90;99.90;;;;;;5019856;28;20095;-91
2021/12/18 06:36:25;;;;;;;17.35;2.47;;;5.90;99.90;;;;;;5019339;28;20518;-91
2021/12/18 06:38:51;;;;;;;19.15;2.50;;;5.90;99.90;;;;;;5019598;28;20449;-91
2021/12/18 06:41:17;;;;;;;397.17;20.92;;;5.90;99.90;;;;;;5019533;28;20094;-95
2021/12/18 06:43:42;;;;;;;34.30;2.85;;;5.90;99.90;;;;;;5035924;28;20132;-91
2021/12/18 06:46:08;;;;;;;23.88;2.30;;;6.00;99.90;;;;;;5019642;28;20057;-91
2021/12/18 06:48:34;;;;;;;24.10;2.83;;;5.90;99.90;;;;;;5035702;28;20041;-91
2021/12/18 06:51:00;;;;;;;20.45;2.40;;;6.00;99.90;;;;;;5035011;28;20479;-91
2021/12/18 06:53:26;;;;;;;18.42;2.28;;;5.90;99.90;;;;;;5019273;28;20098;-91
2021/12/18 06:55:52;;;;;;;20.45;2.10;;;5.90;99.90;;;;;;5035753;28;20041;-90
2021/12/18 06:58:18;;;;;;;20.45;2.85;;;5.90;99.90;;;;;;5035737;28;20136;-91
2021/12/18 07:00:43;;;;;;;20.33;2.47;;;5.90;99.90;;;;;;5035802;28;20081;-91
2021/12/18 07:03:09;;;;;;;14.50;2.00;;;5.90;99.90;;;;;;5036033;28;20078;-91
2021/12/18 07:05:35;;;;;;;14.20;2.22;;;5.90;99.90;;;;;;5035922;28;20053;-91
2021/12/18 07:08:00;;;;;;;13.38;2.20;;;5.90;99.90;;;;;;5035641;28;20033;-92
2021/12/18 07:10:26;;;;;;;20.92;2.55;;;5.90;99.90;;;;;;5035415;28;20049;-91
2021/12/18 07:12:52;;;;;;;10.75;2.30;;;5.90;99.90;;;;;;5018983;28;20045;-91
2021/12/18 07:15:17;;;;;;;18.25;2.60;;;5.90;99.90;;;;;;5019271;28;20406;-91
2021/12/18 07:17:43;;;;;;;20.40;2.63;;;5.90;99.90;;;;;;5018966;28;20517;-90
2021/12/18 07:20:11;;;;;;;28.98;3.17;;;5.90;99.90;;;;;;5035851;28;20483;-90
2021/12/18 07:22:37;;;;;;;18.55;2.75;;;5.90;99.90;;;;;;5035490;28;20074;-91
2021/12/18 07:25:03;;;;;;;21.38;2.72;;;5.90;99.90;;;;;;5018949;28;20052;-91
2021/12/18 07:27:29;;;;;;;26.38;2.92;;;5.90;99.90;;;;;;5035143;28;20055;-90
2021/12/18 07:29:55;;;;;;;23.42;2.97;;;5.90;99.90;;;;;;5018414;28;20163;-94
2021/12/18 07:32:21;;;;;;;18.02;2.70;;;5.90;99.90;;;;;;5035489;28;20044;-90
2021/12/18 07:34:46;;;;;;;18.10;2.58;;;5.90;99.90;;;;;;5035475;28;20601;-90
2021/12/18 07:37:12;;;;;;;21.33;2.72;;;5.90;99.90;;;;;;5035290;28;20045;-90
2021/12/18 07:43:19;;;;;;;28.90;3.45;;;6.00;99.90;;;;;;5076653;28;20109;-91
2021/12/18 07:45:44;;;;;;;16.40;3.10;;;6.10;99.90;;;;;;5059040;28;20044;-91
2021/12/18 07:48:10;;;;;;;24.88;3.20;;;6.00;99.90;;;;;;5058312;28;20050;-90
2021/12/18 07:50:35;;;;;;;16.52;3.08;;;6.00;99.90;;;;;;5041637;28;20133;-91
2021/12/18 07:53:01;;;;;;;14.80;2.85;;;6.00;99.90;;;;;;5058040;28;20048;-90
2021/12/18 07:55:28;;;;;;;20.55;3.40;;;6.00;99.90;;;;;;5058159;28;20046;-91
2021/12/18 07:57:54;;;;;;;16.98;3.00;;;6.10;99.90;;;;;;5058324;28;20052;-90
2021/12/18 08:00:21;;;;;;;27.23;3.03;;;6.10;99.90;;;;;;5058717;28;20056;-90
2021/12/18 08:02:47;;;;;;;18.55;3.10;;;6.10;99.90;;;;;;5041872;28;20056;-89
2021/12/18 08:05:14;;;;;;;26.67;3.05;;;6.10;99.90;;;;;;5041834;28;20056;-89
2021/12/18 08:07:41;;;;;;;29.98;3.72;;;6.10;99.90;;;;;;5051218;28;20051;-91
2021/12/18 08:10:07;;;;;;;22.50;2.80;;;6.30;99.90;;;;;;5038790;28;20448;-90
2021/12/18 08:12:33;;;;;;;22.70;3.10;;;6.10;99.90;;;;;;5038577;28;20399;-90
2021/12/18 08:14:58;;;;;;;27.88;3.38;;;6.20;99.90;;;;;;5021949;28;20049;-90
2021/12/18 08:17:25;;;;;;;17.50;3.30;;;6.10;99.90;;;;;;5038585;28;20037;-90
2021/12/18 08:19:50;;;;;;;22.98;3.30;;;6.10;99.90;;;;;;5038316;28;20052;-90
2021/12/18 08:22:16;;;;;;;23.80;3.38;;;6.20;99.90;;;;;;5038034;28;20099;-90
2021/12/18 08:24:42;;;;;;;29.98;4.22;;;6.20;99.90;;;;;;5038146;28;20405;-89
2021/12/18 08:27:08;;;;;;;33.85;3.33;;;6.20;99.90;;;;;;5021499;28;20063;-90
2021/12/18 08:29:33;;;;;;;27.38;3.80;;;6.20;99.90;;;;;;5036186;28;20085;-91
2021/12/18 08:31:59;;;;;;;21.48;3.17;;;6.20;99.90;;;;;;5049980;28;20076;-89
2021/12/18 08:34:25;;;;;;;36.28;4.28;;;6.30;99.90;;;;;;5030087;28;20052;-90
2021/12/18 08:36:51;;;;;;;28.73;3.40;;;6.40;99.90;;;;;;5037957;28;20048;-91
2021/12/18 08:39:17;;;;;;;31.95;3.80;;;6.30;99.90;;;;;;5037678;28;20045;-90
2021/12/18 08:41:45;;;;;;;19.02;3.25;;;6.30;99.90;;;;;;5020086;28;20513;-90
2021/12/18 08:44:11;;;;;;;28.73;3.70;;;6.30;99.90;;;;;;5037569;28;20088;-89
2021/12/18 08:46:38;;;;;;;20.55;3.50;;;6.40;99.90;;;;;;5020320;28;20059;-94
2021/12/18 08:49:04;;;;;;;29.33;3.83;;;6.40;99.90;;;;;;5037250;28;20045;-89
2021/12/18 08:51:30;;;;;;;33.67;4.18;;;6.40;99.90;;;;;;5036430;28;20040;-90
2021/12/18 08:53:56;;;;;;;26.00;3.97;;;6.40;99.90;;;;;;5037534;28;20063;-89
2021/12/18 08:56:22;;;;;;;28.52;4.18;;;6.50;99.90;;;;;;5021161;28;20086;-90
2021/12/18 08:58:48;;;;;;;35.55;4.22;;;6.50;99.90;;;;;;5037636;28;20045;-93
2021/12/18 09:01:14;;;;;;;34.35;4.32;;;6.50;99.90;;;;;;5016009;28;20052;-89
2021/12/18 09:03:40;;;;;;;25.48;4.65;;;6.50;99.90;;;;;;5020798;28;20048;-89
2021/12/18 09:06:05;;;;;;;45.80;5.80;;;6.60;99.90;;;;;;5036616;28;20041;-89
2021/12/18 09:08:31;;;;;;;24.25;4.50;;;6.60;99.90;;;;;;5036825;28;20126;-89
2021/12/18 09:10:56;;;;;;;32.33;4.70;;;6.60;99.90;;;;;;5020403;28;20048;-89
2021/12/18 09:13:22;;;;;;;38.75;6.10;;;6.60;99.90;;;;;;5020825;28;20053;-90
2021/12/18 09:15:48;;;;;;;31.23;5.65;;;6.60;99.90;;;;;;5037365;28;20376;-90
2021/12/18 09:18:13;;;;;;;487.73;43.60;;;6.70;99.90;;;;;;5020615;28;20041;-89
2021/12/18 09:20:41;;;;;;;31.92;5.70;;;6.70;99.90;;;;;;5037020;28;20044;-90
2021/12/18 09:23:07;;;;;;;1740.65;148.35;;;6.80;99.90;;;;;;5036829;28;20124;-91
2021/12/18 09:25:34;;;;;;;99.28;7.28;;;6.80;99.90;;;;;;5037143;28;20534;-89
2021/12/18 09:28:00;;;;;;;30.52;5.68;;;6.80;99.90;;;;;;5035961;28;20049;-89
2021/12/18 09:30:26;;;;;;;39.28;6.40;;;6.80;99.90;;;;;;5033408;28;20057;-90
2021/12/18 09:32:52;;;;;;;34.97;6.22;;;6.80;99.90;;;;;;5035759;28;20048;-89
2021/12/18 09:35:18;;;;;;;29.30;6.43;;;6.90;99.90;;;;;;5036741;28;20056;-89
2021/12/18 09:37:44;;;;;;;34.83;6.47;;;6.90;99.90;;;;;;5036382;28;20071;-89
2021/12/18 09:40:12;;;;;;;33.20;5.85;;;6.90;99.90;;;;;;5036182;28;20044;-90
2021/12/18 09:42:38;;;;;;;53.20;7.07;;;6.90;99.90;;;;;;5036535;28;20045;-89
2021/12/18 09:45:05;;;;;;;37.67;6.78;;;7.10;99.90;;;;;;5036447;28;20088;-89
2021/12/18 09:47:31;;;;;;;34.35;6.25;;;7.00;99.90;;;;;;5019715;28;20048;-90
2021/12/18 09:49:58;;;;;;;31.58;6.43;;;7.30;99.90;;;;;;5019589;28;20044;-90
2021/12/18 09:52:25;;;;;;;37.67;6.97;;;7.10;99.90;;;;;;5036385;28;20048;-91
2021/12/18 09:54:56;;;;;;;31.77;7.35;;;7.20;99.90;;;;;;5036061;28;20056;-89
2021/12/18 09:57:21;;;;;;;32.08;7.25;;;7.20;99.90;;;;;;5020016;28;20405;-90
2021/12/18 09:59:47;;;;;;;28.55;6.10;;;7.20;99.90;;;;;;5036190;28;20049;-89
2021/12/18 10:02:13;;;;;;;28.60;6.00;;;7.30;99.90;;;;;;5035906;28;20051;-90
2021/12/18 10:04:41;;;;;;;37.03;7.10;;;7.40;99.90;;;;;;5019558;28;20106;-90
2021/12/18 10:07:21;;;;;;;31.63;6.47;;;7.30;99.90;;;;;;5019651;28;20045;-90
2021/12/18 10:09:48;;;;;;;39.75;7.32;;;7.60;99.90;;;;;;5019698;28;20041;-90
2021/12/18 10:12:31;;;;;;;26.80;7.72;;;7.40;99.90;;;;;;5019856;28;20475;-90
2021/12/18 10:15:04;;;;;;;66.38;9.15;;;7.50;99.90;;;;;;5019338;28;20518;-89
2021/12/18 10:17:36;;;;;;;39.08;8.23;;;7.50;99.90;;;;;;5019308;28;20060;-91
2021/12/18 10:20:11;;;;;;;31.63;7.93;;;7.50;99.90;;;;;;5035944;28;20051;-89
2021/12/18 10:22:46;;;;;;;37.40;7.88;;;7.50;99.90;;;;;;5019836;28;20084;-91
2021/12/18 10:25:12;;;;;;;30.10;7.25;;;7.60;99.90;;;;;;5036002;28;20041;-91
2021/12/18 10:27:41;;;;;;;25.73;7.13;;;7.50;99.90;;;;;;5019558;28;20100;-90
2021/12/18 10:30:16;;;;;;;23.15;6.75;;;7.70;99.90;;;;;;5035763;28;20055;-91
2021/12/18 10:32:58;;;;;;;25.45;7.32;;;7.60;99.90;;;;;;5036360;28;20052;-91
2021/12/18 10:35:48;;;;;;;37.67;7.65;;;7.80;99.90;;;;;;5036160;28;20041;-91
2021/12/18 10:38:38;;;;;;;27.30;7.20;;;7.80;99.90;;;;;;5019605;28;20041;-90
2021/12/18 10:41:24;;;;;;;24.95;6.60;;;7.80;99.90;;;;;;5036047;28;20072;-91
2021/12/18 10:44:08;;;;;;;25.38;6.65;;;7.90;99.90;;;;;;5036248;28;20037;-91
2021/12/18 10:46:45;;;;;;;27.52;7.35;;;7.90;99.90;;;;;;5019468;28;20045;-90
2021/12/18 10:49:16;;;;;;;28.40;6.57;;;8.00;99.90;;;;;;5035180;28;20063;-90
2021/12/18 10:51:43;;;;;;;23.88;6.97;;;8.00;99.90;;;;;;5035987;28;20041;-90
2021/12/18 10:54:22;;;;;;;27.25;6.60;;;8.00;99.90;;;;;;5036046;28;20045;-91
2021/12/18 10:56:51;;;;;;;19.55;7.30;;;8.00;99.90;;;;;;5035848;28;20048;-91
2021/12/18 10:59:32;;;;;;;25.33;7.63;;;8.10;99.90;;;;;;5035842;28;20052;-89
2021/12/18 11:02:00;;;;;;;22.58;6.25;;;8.10;99.90;;;;;;5019039;28;20045;-95
2021/12/18 11:04:35;;;;;;;21.90;6.85;;;8.10;99.90;;;;;;5035907;28;20124;-91
2021/12/18 11:07:27;;;;;;;25.02;7.20;;;8.10;99.90;;;;;;5035519;28;20055;-91
2021/12/18 11:10:14;;;;;;;18.83;6.20;;;8.10;99.90;;;;;;5018776;28;20048;-91
2021/12/18 11:15:25;;;;;;;18.08;6.03;;;8.20;99.90;;;;;;5039316;28;20118;-91
2021/12/18 11:17:54;;;;;;;16.58;5.32;;;8.20;99.90;;;;;;5039217;28;20580;-91
2021/12/18 11:20:20;;;;;;;15.13;5.68;;;8.20;99.90;;;;;;5040145;28;20049;-91
2021/12/18 11:22:49;;;;;;;14.60;5.80;;;8.30;99.90;;;;;;5039482;28;20049;-91
2021/12/18 11:25:14;;;;;;;13.90;5.03;;;8.30;99.90;;;;;;5039918;28;20182;-90
2021/12/18 11:27:41;;;;;;;18.52;6.28;;;8.30;99.90;;;;;;5022548;28;20084;-91
2021/12/18 11:30:11;;;;;;;13.23;5.28;;;8.30;99.90;;;;;;5039360;28;20049;-91
2021/12/18 11:32:40;;;;;;;14.70;5.80;;;8.40;99.90;;;;;;5022905;28;20045;-91
2021/12/18 11:35:21;;;;;;;15.43;5.40;;;8.40;99.90;;;;;;5039350;28;20425;-91
2021/12/18 11:37:55;;;;;;;16.50;5.88;;;8.40;99.90;;;;;;5039386;28;20053;-89
2021/12/18 11:40:32;;;;;;;19.65;6.40;;;8.50;99.90;;;;;;5022974;28;20052;-91
2021/12/18 11:42:58;;;;;;;16.30;5.57;;;8.60;99.90;;;;;;5039503;28;20044;-90
2021/12/18 11:45:34;;;;;;;15.20;6.05;;;8.50;99.90;;;;;;5039753;28;20041;-94
2021/12/18 11:48:00;;;;;;;17.08;6.63;;;8.60;99.90;;;;;;5039104;28;20118;-91
2021/12/18 11:50:36;;;;;;;20.25;6.43;;;8.50;99.90;;;;;;5022917;28;20445;-91
2021/12/18 11:53:24;;;;;;;18.17;6.78;;;8.60;99.90;;;;;;5039197;28;20043;-90
2021/12/18 11:55:50;;;;;;;19.80;6.60;;;8.60;99.90;;;;;;5022567;28;20048;-90
2021/12/18 11:58:21;;;;;;;16.33;6.97;;;8.50;99.90;;;;;;5022640;28;20045;-90
2021/12/18 12:00:49;;;;;;;21.73;6.88;;;8.50;99.90;;;;;;5022571;28;20044;-91
2021/12/18 12:03:29;;;;;;;17.80;6.72;;;8.50;99.90;;;;;;5038913;28;20406;-90
2021/12/18 12:05:56;;;;;;;14.27;5.13;;;8.50;99.90;;;;;;5038902;28;20071;-90
2021/12/18 12:08:34;;;;;;;11.20;5.10;;;8.50;99.90;;;;;;5038737;28;20047;-92
2021/12/18 12:11:26;;;;;;;14.80;4.43;;;8.50;99.90;;;;;;5038582;28;20445;-89
2021/12/18 12:14:01;;;;;;;12.32;4.75;;;8.60;99.90;;;;;;5038933;28;20040;-92
2021/12/18 12:16:45;;;;;;;9.07;3.88;;;8.60;99.90;;;;;;5038786;28;20394;-92
2021/12/18 12:19:15;;;;;;;10.00;4.60;;;8.80;99.90;;;;;;5038707;28;20049;-92
2021/12/18 12:21:46;;;;;;;7.95;3.20;;;8.70;99.90;;;;;;5038777;28;20102;-93
2021/12/18 12:24:14;;;;;;;5.95;2.90;;;8.60;99.90;;;;;;5022744;28;20052;-92
2021/12/18 12:26:40;;;;;;;6.63;2.90;;;8.60;99.90;;;;;;5039068;28;20172;-91
2021/12/18 12:29:08;;;;;;;9.45;3.20;;;8.60;99.90;;;;;;5011699;28;20101;-92
2021/12/18 12:31:34;;;;;;;6.55;2.97;;;8.60;99.90;;;;;;5007104;28;20099;-90
2021/12/18 12:34:33;;;;;;;6.75;2.60;;;8.80;99.90;;;;;;5038472;28;20414;-91
2021/12/18 12:37:22;;;;;;;7.68;2.80;;;8.70;99.90;;;;;;5022377;28;20084;-92
2021/12/18 12:40:02;;;;;;;10.80;2.83;;;8.70;99.90;;;;;;4978554;28;20074;-91
2021/12/18 12:42:28;;;;;;;7.97;3.08;;;8.70;99.90;;;;;;4978357;28;20512;-92
2021/12/18 12:45:05;;;;;;;8.05;2.45;;;8.70;99.90;;;;;;4978450;28;20432;-91
2021/12/18 12:47:31;;;;;;;5.72;2.55;;;8.70;99.90;;;;;;4978324;28;20057;-92
2021/12/18 12:50:20;;;;;;;5.63;2.42;;;8.80;99.90;;;;;;4977877;28;20042;-89
2021/12/18 12:53:10;;;;;;;4.32;2.50;;;8.70;99.90;;;;;;4978414;28;20058;-93
2021/12/18 12:55:48;;;;;;;6.95;2.38;;;8.70;99.90;;;;;;4915319;29;20134;-90
2021/12/18 12:58:19;;;;;;;4.63;2.50;;;8.60;99.90;;;;;;4920252;29;20066;-90
2021/12/18 13:00:49;;;;;;;4.63;2.40;;;8.40;99.90;;;;;;4936294;29;20094;-90
2021/12/18 13:03:18;;;;;;;6.72;2.50;;;8.60;99.90;;;;;;4920685;29;20068;-91
2021/12/18 13:05:47;;;;;;;6.75;2.70;;;8.50;99.90;;;;;;4920580;29;20115;-91
2021/12/18 13:08:13;;;;;;;6.88;2.58;;;8.50;99.90;;;;;;4920388;29;20044;-92
2021/12/18 13:10:41;;;;;;;9.35;2.65;;;8.60;99.90;;;;;;4920385;29;20067;-91
2021/12/18 13:13:16;;;;;;;9.85;3.38;;;8.50;99.90;;;;;;4936138;29;20052;-92
2021/12/18 13:15:54;;;;;;;6.05;3.00;;;8.50;99.90;;;;;;4920890;29;20130;-91
2021/12/18 13:18:26;;;;;;;8.27;3.30;;;8.60;99.90;;;;;;4939287;29;20462;-92
2021/12/18 13:21:00;;;;;;;11.43;3.45;;;8.60;99.90;;;;;;4939333;29;20054;-92
2021/12/18 13:23:38;;;;;;;6.97;2.97;;;8.60;99.90;;;;;;4940199;29;20058;-91
2021/12/18 13:26:08;;;;;;;6.75;3.00;;;8.60;99.90;;;;;;4923297;29;20061;-92
2021/12/18 13:28:35;;;;;;;6.25;3.13;;;8.70;99.90;;;;;;4944092;28;20102;-91
2021/12/18 13:31:09;;;;;;;11.20;3.15;;;8.60;99.90;;;;;;4958415;28;20113;-92
2021/12/18 13:33:35;;;;;;;12.50;3.30;;;8.50;99.90;;;;;;5045677;28;20148;-91
2021/12/18 13:36:02;;;;;;;11.00;3.30;;;8.60;99.90;;;;;;5040408;28;20139;-91
2021/12/18 13:38:40;;;;;;;9.25;3.13;;;8.50;99.90;;;;;;5056731;28;20552;-91
2021/12/18 13:41:13;;;;;;;5.97;2.90;;;8.60;99.90;;;;;;5040449;28;20394;-92
2021/12/18 13:43:40;;;;;;;7.70;3.13;;;8.60;99.90;;;;;;5042923;28;20603;-91
2021/12/18 13:46:08;;;;;;;11.13;3.22;;;8.60;99.90;;;;;;5057208;28;20044;-92
2021/12/18 13:48:39;;;;;;;14.00;3.90;;;8.60;99.90;;;;;;5056658;28;20118;-91